Time;durP1;ratioP1;P1;durP2;ratioP2;P2;SDS_P1;SDS_P2;PMS_P1;PMS_P2;Temp;Humidity;BMP_temperature;BMP_pressure;BME280_temperature;BME280_humidity;BME280_pressure;Samples;Min_cycle;Max_cycle;Signal;HPM_P1;HPM_P2
2022/01/18 05:01:59;;;;;;;12.93;3.00;;;-0.10;96.30;;;;;;5133586;23;20494;-78
2022/01/18 05:04:24;;;;;;;24.63;3.40;;;-0.10;96.30;;;;;;4897726;29;20477;-78
2022/01/18 05:06:52;;;;;;;14.87;2.27;;;-0.10;96.30;;;;;;4885193;29;20622;-77
2022/01/18 05:09:17;;;;;;;18.27;2.60;;;-0.10;96.30;;;;;;4863772;29;20181;-78
2022/01/18 05:11:53;;;;;;;11.43;2.50;;;-0.10;96.30;;;;;;4879540;29;20470;-77
2022/01/18 05:14:27;;;;;;;20.37;2.30;;;-0.10;96.30;;;;;;4879347;29;20681;-78
2022/01/18 05:19:40;;;;;;;23.07;2.90;;;-0.10;96.30;;;;;;4879683;29;20414;-77
2022/01/18 05:24:32;;;;;;;15.90;2.50;;;0.00;96.30;;;;;;4879464;29;20476;-76
2022/01/18 05:27:02;;;;;;;21.43;2.50;;;0.00;96.30;;;;;;4879330;29;20414;-75
2022/01/18 05:29:27;;;;;;;33.57;4.00;;;0.00;96.30;;;;;;4879302;29;20261;-77
2022/01/18 05:31:53;;;;;;;15.63;2.80;;;0.00;96.30;;;;;;4879159;29;20472;-77
2022/01/18 05:34:19;;;;;;;19.40;2.80;;;0.00;96.30;;;;;;4862235;29;20181;-77
2022/01/18 05:36:45;;;;;;;14.00;2.60;;;0.00;96.30;;;;;;4879554;29;20853;-77
2022/01/18 05:39:11;;;;;;;21.63;4.63;;;0.00;96.30;;;;;;4897828;29;20736;-76
2022/01/18 05:41:38;;;;;;;13.13;2.60;;;0.00;96.30;;;;;;4880738;29;20299;-76
2022/01/18 05:44:05;;;;;;;17.00;2.90;;;0.00;96.30;;;;;;4897021;29;20435;-77
2022/01/18 05:46:31;;;;;;;28.47;3.03;;;0.00;96.30;;;;;;4897635;29;20426;-77
2022/01/18 05:49:00;;;;;;;13.13;2.20;;;-0.10;96.30;;;;;;4880812;29;21047;-77
2022/01/18 05:51:27;;;;;;;21.60;3.00;;;-0.10;96.30;;;;;;4880748;29;20205;-78
2022/01/18 05:53:52;;;;;;;14.60;2.37;;;-0.10;96.30;;;;;;4880474;29;20432;-77
2022/01/18 05:56:18;;;;;;;14.27;2.00;;;-0.10;96.30;;;;;;4880648;29;20481;-78
2022/01/18 05:58:45;;;;;;;16.97;2.20;;;-0.10;96.30;;;;;;4897447;29;20193;-78
2022/01/18 06:01:14;;;;;;;17.20;2.27;;;-0.10;96.30;;;;;;4880610;29;20516;-81
2022/01/18 06:09:08;;;;;;;14.40;2.90;;;-0.10;96.30;;;;;;4879019;29;20458;-77
2022/01/18 06:11:33;;;;;;;17.70;3.60;;;-0.10;96.30;;;;;;4861874;29;20450;-79
2022/01/18 06:14:00;;;;;;;15.90;2.00;;;-0.20;96.30;;;;;;4887098;29;20181;-76
2022/01/18 06:16:26;;;;;;;9.57;2.23;;;-0.20;96.30;;;;;;4881106;29;20708;-78
2022/01/18 06:18:53;;;;;;;18.33;2.77;;;-0.20;96.30;;;;;;4881096;29;20465;-77
2022/01/18 06:21:19;;;;;;;19.13;2.90;;;-0.20;96.30;;;;;;4880442;29;20433;-78
2022/01/18 06:23:45;;;;;;;19.53;3.83;;;-0.20;96.30;;;;;;4880377;29;20470;-78
2022/01/18 06:26:15;;;;;;;21.70;3.33;;;-0.20;96.30;;;;;;4897906;29;20424;-76
2022/01/18 06:28:41;;;;;;;22.40;3.47;;;-0.20;96.30;;;;;;4898384;29;20233;-77
2022/01/18 06:31:06;;;;;;;30.53;2.70;;;-0.20;96.30;;;;;;4871187;29;20485;-76
2022/01/18 06:33:32;;;;;;;18.87;3.50;;;-0.20;96.30;;;;;;4861239;29;20180;-76
2022/01/18 06:35:57;;;;;;;15.57;3.17;;;-0.20;96.30;;;;;;4904547;29;20187;-79
2022/01/18 06:38:22;;;;;;;14.60;2.73;;;-0.20;96.30;;;;;;4904256;29;20705;-79
2022/01/18 06:40:49;;;;;;;11.87;2.73;;;-0.20;96.30;;;;;;4897193;29;20204;-77
2022/01/18 06:43:15;;;;;;;13.07;2.70;;;-0.20;96.30;;;;;;4879630;29;20713;-76
2022/01/18 06:45:40;;;;;;;18.27;2.93;;;-0.10;96.30;;;;;;4880189;29;20562;-77
2022/01/18 06:48:07;;;;;;;12.53;2.10;;;-0.10;96.30;;;;;;4899119;29;20653;-76
2022/01/18 06:50:33;;;;;;;12.80;2.70;;;-0.10;96.30;;;;;;4886328;29;20295;-75
2022/01/18 06:52:59;;;;;;;19.57;3.10;;;-0.10;96.30;;;;;;4896762;29;20851;-77
2022/01/18 06:55:25;;;;;;;17.60;2.33;;;-0.10;96.30;;;;;;4890645;29;20410;-77
2022/01/18 06:57:51;;;;;;;13.23;3.03;;;-0.10;96.30;;;;;;4893246;29;20190;-77
2022/01/18 07:00:17;;;;;;;15.13;2.93;;;-0.10;96.30;;;;;;4895826;29;20423;-78
2022/01/18 07:02:43;;;;;;;12.33;2.60;;;-0.10;96.30;;;;;;4889525;29;20189;-77
2022/01/18 07:05:08;;;;;;;13.73;3.30;;;-0.10;96.30;;;;;;4897775;29;20732;-77
2022/01/18 07:07:34;;;;;;;18.43;2.57;;;-0.20;96.30;;;;;;4894378;29;20177;-77
2022/01/18 07:10:00;;;;;;;12.80;2.90;;;-0.20;96.30;;;;;;4877966;29;20649;-77
2022/01/18 07:12:26;;;;;;;13.20;3.13;;;-0.20;96.30;;;;;;4894900;29;20295;-76
2022/01/18 07:14:52;;;;;;;19.70;3.00;;;-0.20;96.30;;;;;;4881586;29;20585;-78
2022/01/18 07:17:17;;;;;;;17.40;3.13;;;-0.20;96.30;;;;;;4900461;29;20500;-77
2022/01/18 07:19:43;;;;;;;27.83;3.10;;;-0.20;96.30;;;;;;4900993;29;20965;-76
2022/01/18 07:22:08;;;;;;;22.27;3.40;;;-0.20;96.30;;;;;;4899875;29;20579;-76
2022/01/18 07:24:43;;;;;;;16.10;3.17;;;-0.20;96.30;;;;;;4882785;29;20188;-77
2022/01/18 07:27:11;;;;;;;19.37;2.80;;;-0.20;96.30;;;;;;4899966;29;20267;-76
2022/01/18 07:29:37;;;;;;;24.20;4.27;;;-0.20;96.30;;;;;;4899904;29;20429;-77
2022/01/18 07:32:04;;;;;;;10.83;3.60;;;-0.20;96.30;;;;;;4899839;29;20451;-77
2022/01/18 07:34:32;;;;;;;18.77;3.37;;;-0.10;96.30;;;;;;4899605;29;20472;-76
2022/01/18 07:36:57;;;;;;;20.63;4.50;;;-0.10;96.30;;;;;;4885174;29;20527;-77
2022/01/18 07:39:23;;;;;;;18.50;3.13;;;-0.10;96.30;;;;;;4899843;29;20501;-77
2022/01/18 07:41:48;;;;;;;23.17;3.20;;;-0.10;96.30;;;;;;4899831;29;20197;-76
2022/01/18 07:44:14;;;;;;;18.17;3.80;;;0.00;96.30;;;;;;4899085;29;20232;-77
2022/01/18 07:46:39;;;;;;;22.90;3.87;;;0.00;96.30;;;;;;4899728;29;20181;-77
2022/01/18 07:49:05;;;;;;;16.70;3.93;;;0.00;96.30;;;;;;4899759;29;20259;-77
2022/01/18 07:51:30;;;;;;;16.63;3.80;;;0.00;96.30;;;;;;4902196;29;20571;-77
2022/01/18 07:53:56;;;;;;;17.30;4.40;;;0.00;96.30;;;;;;4899196;29;20191;-77
2022/01/18 07:56:21;;;;;;;14.30;3.97;;;0.00;96.30;;;;;;4899520;29;20189;-77
2022/01/18 07:58:47;;;;;;;21.07;3.77;;;0.00;96.30;;;;;;4899263;29;20216;-77
2022/01/18 08:01:12;;;;;;;21.70;4.43;;;0.10;96.30;;;;;;4907412;29;20207;-78
2022/01/18 08:03:38;;;;;;;25.47;3.70;;;0.10;96.30;;;;;;4923388;29;20181;-78
2022/01/18 08:06:04;;;;;;;30.40;4.87;;;0.10;96.30;;;;;;4914427;29;20198;-77
2022/01/18 08:08:29;;;;;;;23.00;4.90;;;0.10;96.30;;;;;;4887010;29;20276;-76
2022/01/18 08:10:55;;;;;;;17.50;3.20;;;0.10;96.30;;;;;;4890004;29;20337;-76
2022/01/18 08:13:26;;;;;;;17.03;4.30;;;0.10;96.30;;;;;;4898917;29;20232;-77
2022/01/18 08:16:08;;;;;;;22.53;4.50;;;0.10;96.30;;;;;;4883444;29;20175;-78
2022/01/18 08:18:34;;;;;;;15.40;3.63;;;0.10;96.30;;;;;;4882045;29;20475;-77
2022/01/18 08:20:59;;;;;;;20.17;4.83;;;0.10;96.30;;;;;;4898810;29;20453;-76
2022/01/18 08:23:25;;;;;;;21.30;5.67;;;0.20;96.30;;;;;;4898609;29;20660;-77
2022/01/18 08:25:50;;;;;;;12.90;3.63;;;0.20;96.30;;;;;;4898802;29;20203;-77
2022/01/18 08:28:16;;;;;;;17.87;4.90;;;0.20;96.30;;;;;;4898933;29;20252;-77
2022/01/18 08:30:41;;;;;;;13.27;4.53;;;0.20;96.30;;;;;;4899008;29;20703;-77
2022/01/18 08:33:07;;;;;;;17.03;4.33;;;0.20;96.30;;;;;;4892303;29;20188;-77
2022/01/18 08:35:33;;;;;;;9.80;4.50;;;0.20;96.30;;;;;;4906984;29;20256;-78
2022/01/18 08:37:58;;;;;;;13.50;5.33;;;0.30;96.30;;;;;;4896492;29;20204;-79
2022/01/18 08:40:23;;;;;;;10.73;5.20;;;0.20;96.30;;;;;;4885395;29;20209;-79
2022/01/18 08:42:49;;;;;;;12.07;5.07;;;0.20;96.30;;;;;;4874527;29;20184;-78
2022/01/18 08:45:15;;;;;;;10.00;5.30;;;0.30;96.30;;;;;;4898148;29;20185;-78
2022/01/18 08:47:40;;;;;;;13.57;5.90;;;0.30;96.30;;;;;;4898638;29;20211;-77
2022/01/18 08:50:06;;;;;;;14.27;5.57;;;0.30;96.30;;;;;;4871583;29;20223;-80
2022/01/18 08:52:32;;;;;;;11.37;5.57;;;0.30;96.30;;;;;;4879435;29;20249;-81
2022/01/18 08:54:57;;;;;;;13.30;4.83;;;0.40;96.30;;;;;;4869884;29;20189;-82
2022/01/18 08:57:23;;;;;;;10.50;4.73;;;0.40;96.30;;;;;;4882429;29;20229;-80
2022/01/18 08:59:50;;;;;;;14.03;5.37;;;0.40;96.30;;;;;;4883564;29;20182;-78
2022/01/18 09:02:16;;;;;;;7.63;4.53;;;0.40;96.30;;;;;;4871575;29;20217;-80
2022/01/18 09:04:41;;;;;;;9.43;5.23;;;0.50;96.30;;;;;;4891809;29;20939;-79
2022/01/18 09:07:09;;;;;;;8.83;6.53;;;0.50;96.30;;;;;;4862752;29;20458;-78
2022/01/18 09:09:38;;;;;;;9.63;5.57;;;0.50;96.30;;;;;;4881228;29;20616;-78
2022/01/18 09:12:04;;;;;;;10.43;5.23;;;0.50;96.30;;;;;;4883539;29;21048;-77
2022/01/18 09:14:29;;;;;;;6.37;5.10;;;0.50;96.30;;;;;;4890772;29;20413;-78
2022/01/18 09:16:55;;;;;;;8.73;6.27;;;0.50;96.30;;;;;;4898108;29;20180;-78
2022/01/18 09:19:20;;;;;;;10.40;5.93;;;0.50;96.30;;;;;;4897914;29;20181;-78
2022/01/18 09:21:48;;;;;;;10.83;5.80;;;0.50;96.30;;;;;;4897898;29;20688;-78
2022/01/18 09:24:15;;;;;;;8.63;6.63;;;0.60;96.30;;;;;;4897453;29;20173;-78
2022/01/18 09:26:41;;;;;;;8.40;5.60;;;0.70;96.30;;;;;;4897138;29;20794;-79
2022/01/18 09:29:09;;;;;;;8.83;5.77;;;0.60;96.30;;;;;;4880714;29;20448;-79
2022/01/18 09:31:38;;;;;;;8.87;5.07;;;0.70;96.30;;;;;;4897815;29;20441;-79
2022/01/18 09:34:05;;;;;;;5.30;4.27;;;0.70;96.30;;;;;;4897410;29;20410;-79
2022/01/18 09:36:31;;;;;;;5.87;3.70;;;0.80;96.30;;;;;;4898275;29;20437;-79
2022/01/18 09:38:57;;;;;;;6.30;4.23;;;0.80;96.30;;;;;;4880797;29;20465;-79
2022/01/18 09:41:29;;;;;;;6.07;3.83;;;0.80;96.30;;;;;;4881017;29;20835;-79
2022/01/18 09:43:55;;;;;;;5.57;3.53;;;0.80;96.30;;;;;;4897655;29;20894;-79
2022/01/18 09:46:24;;;;;;;9.43;3.80;;;0.90;96.30;;;;;;4881611;29;20432;-78
2022/01/18 09:48:52;;;;;;;6.17;3.10;;;0.90;96.30;;;;;;4881479;29;21000;-79
2022/01/18 09:51:18;;;;;;;3.70;2.83;;;0.90;96.30;;;;;;4881051;29;20449;-78
2022/01/18 09:53:43;;;;;;;4.17;3.00;;;0.90;96.30;;;;;;4897582;29;20786;-79
2022/01/18 09:56:09;;;;;;;3.27;2.70;;;0.90;96.30;;;;;;4880843;29;20195;-78
2022/01/18 09:58:34;;;;;;;4.60;3.13;;;1.00;96.30;;;;;;4897789;29;20272;-78
2022/01/18 10:01:00;;;;;;;3.57;3.00;;;1.00;96.30;;;;;;4880473;29;20223;-78
2022/01/18 10:03:32;;;;;;;7.80;3.33;;;1.00;96.30;;;;;;4879570;29;20669;-79
2022/01/18 10:05:58;;;;;;;5.63;3.87;;;0.90;96.30;;;;;;4880277;29;20188;-79
2022/01/18 10:08:24;;;;;;;5.33;3.37;;;1.00;96.30;;;;;;4886213;29;20438;-79
2022/01/18 10:10:55;;;;;;;8.17;3.90;;;1.10;96.30;;;;;;4892107;29;20469;-78
2022/01/18 10:13:23;;;;;;;5.30;4.10;;;1.20;96.30;;;;;;4864659;29;20429;-78
2022/01/18 10:16:06;;;;;;;9.23;4.60;;;1.30;96.30;;;;;;4890659;29;20992;-78
2022/01/18 10:18:40;;;;;;;11.30;4.77;;;1.20;96.30;;;;;;4874495;29;20461;-79
2022/01/18 10:21:09;;;;;;;5.97;4.20;;;1.40;96.30;;;;;;4898040;29;20521;-79
2022/01/18 10:23:35;;;;;;;6.03;4.80;;;1.50;96.30;;;;;;4897937;29;20558;-79
2022/01/18 10:26:24;;;;;;;9.20;4.90;;;1.50;96.30;;;;;;4898839;29;20421;-80
2022/01/18 10:29:02;;;;;;;5.50;4.37;;;1.50;96.30;;;;;;4864256;29;20438;-80
2022/01/18 10:31:36;;;;;;;5.20;4.50;;;1.60;96.30;;;;;;4887693;29;20457;-79
2022/01/18 10:36:58;;;;;;;7.53;6.07;;;1.70;96.30;;;;;;4917869;29;20428;-80
2022/01/18 10:39:26;;;;;;;6.43;4.77;;;1.90;96.30;;;;;;4918551;29;20470;-80
2022/01/18 10:41:52;;;;;;;4.97;3.40;;;1.80;96.30;;;;;;4910094;29;20439;-79
2022/01/18 10:44:18;;;;;;;5.97;4.73;;;1.90;96.30;;;;;;4882462;29;20788;-81
2022/01/18 10:46:57;;;;;;;6.40;4.90;;;2.80;96.30;;;;;;4882762;29;20173;-79
2022/01/18 10:49:39;;;;;;;9.83;5.47;;;2.90;96.30;;;;;;4865719;29;20513;-80
2022/01/18 10:52:10;;;;;;;4.80;3.87;;;2.70;96.30;;;;;;4895722;29;20436;-80
2022/01/18 10:54:36;;;;;;;6.77;3.80;;;2.40;96.30;;;;;;4894957;29;20413;-81
2022/01/18 10:57:06;;;;;;;5.87;4.00;;;2.40;96.30;;;;;;4880918;29;20444;-79
2022/01/18 10:59:31;;;;;;;5.17;4.10;;;2.50;96.30;;;;;;4880921;29;20189;-78
2022/01/18 11:02:17;;;;;;;3.47;3.17;;;2.50;96.30;;;;;;4897499;29;20473;-78
2022/01/18 11:04:48;;;;;;;6.77;3.00;;;2.40;96.30;;;;;;4896082;29;20249;-79
2022/01/18 11:07:17;;;;;;;5.40;2.90;;;2.30;96.30;;;;;;4897796;29;20417;-81
2022/01/18 11:09:42;;;;;;;3.97;2.43;;;2.30;96.30;;;;;;4906750;29;20941;-80
2022/01/18 11:12:09;;;;;;;3.03;2.40;;;2.20;96.30;;;;;;4891351;29;20480;-80
2022/01/18 11:14:38;;;;;;;5.63;2.50;;;2.10;96.30;;;;;;4898259;29;20551;-80
2022/01/18 11:17:06;;;;;;;3.83;2.00;;;1.80;96.30;;;;;;4898125;29;20508;-79
2022/01/18 11:19:33;;;;;;;2.30;2.00;;;1.90;96.30;;;;;;4881533;29;20437;-81
2022/01/18 11:22:10;;;;;;;3.80;2.03;;;1.90;96.30;;;;;;4882405;29;20452;-80
2022/01/18 11:24:38;;;;;;;1.67;1.57;;;1.90;96.30;;;;;;4878817;29;20553;-80
2022/01/18 11:27:10;;;;;;;3.87;2.30;;;1.90;96.30;;;;;;4896588;29;20484;-80
2022/01/18 11:29:36;;;;;;;3.10;2.37;;;1.90;96.30;;;;;;4896793;29;20409;-80
2022/01/18 11:32:02;;;;;;;2.73;2.27;;;1.90;96.30;;;;;;4896393;29;20449;-80
2022/01/18 11:34:35;;;;;;;1.90;1.70;;;2.00;96.30;;;;;;4881590;29;20184;-80
2022/01/18 11:37:15;;;;;;;2.13;1.77;;;2.00;96.30;;;;;;4883608;29;20838;-80
2022/01/18 11:39:40;;;;;;;1.90;1.60;;;2.10;96.30;;;;;;4900152;29;20515;-80
2022/01/18 11:42:11;;;;;;;1.70;1.40;;;2.10;96.30;;;;;;4893152;29;20565;-80
2022/01/18 11:44:37;;;;;;;3.23;1.60;;;2.10;96.30;;;;;;4882699;29;20173;-80
2022/01/18 11:47:04;;;;;;;2.53;1.80;;;2.10;96.30;;;;;;4883181;29;21147;-80
2022/01/18 11:49:32;;;;;;;3.97;1.60;;;2.00;96.30;;;;;;4900051;29;20583;-80
2022/01/18 11:52:05;;;;;;;2.27;1.40;;;1.90;96.30;;;;;;4899753;29;20928;-80
2022/01/18 11:54:37;;;;;;;1.80;1.63;;;1.80;96.30;;;;;;4899399;29;20921;-80
2022/01/18 11:57:20;;;;;;;3.93;1.90;;;1.90;96.30;;;;;;4882938;29;20418;-80
2022/01/18 11:59:47;;;;;;;3.67;1.60;;;2.00;96.30;;;;;;4882986;29;20433;-79
2022/01/18 12:02:29;;;;;;;4.73;1.60;;;2.20;96.30;;;;;;4899827;29;20493;-79
2022/01/18 12:04:57;;;;;;;4.23;1.63;;;2.30;96.30;;;;;;4882090;29;20427;-80
2022/01/18 12:07:38;;;;;;;2.40;1.50;;;2.30;96.30;;;;;;4882485;29;20422;-79
2022/01/18 12:10:27;;;;;;;3.80;1.87;;;2.30;96.30;;;;;;4894559;29;20420;-80
2022/01/18 12:12:55;;;;;;;3.30;1.70;;;2.50;96.30;;;;;;4901357;29;20432;-79
2022/01/18 12:15:22;;;;;;;5.30;2.60;;;2.50;96.30;;;;;;4900769;29;20448;-79
2022/01/18 12:17:49;;;;;;;1.70;1.60;;;2.50;96.30;;;;;;4893740;29;21048;-80
2022/01/18 12:20:33;;;;;;;3.40;2.03;;;2.60;96.30;;;;;;4882388;29;20509;-79
2022/01/18 12:23:07;;;;;;;6.00;1.97;;;2.60;96.30;;;;;;4899431;29;21020;-80
2022/01/18 12:25:52;;;;;;;4.80;2.20;;;2.60;96.30;;;;;;4882445;29;20529;-79
2022/01/18 12:28:46;;;;;;;3.80;2.20;;;2.40;96.30;;;;;;4883232;29;20421;-79
2022/01/18 12:36:53;;;;;;;2.97;2.17;;;2.30;96.30;;;;;;4904880;29;20436;-79
2022/01/18 12:39:19;;;;;;;4.10;2.40;;;2.20;96.30;;;;;;4898093;29;20217;-80
2022/01/18 12:41:51;;;;;;;5.43;2.40;;;2.20;96.30;;;;;;4893960;29;20468;-80
2022/01/18 12:44:24;;;;;;;4.07;2.63;;;2.20;96.30;;;;;;4867423;29;20256;-80
2022/01/18 12:46:57;;;;;;;4.13;2.33;;;2.30;96.30;;;;;;4894995;29;20437;-80
2022/01/18 12:49:23;;;;;;;5.00;2.77;;;2.30;96.30;;;;;;4883280;29;20600;-80
2022/01/18 12:51:59;;;;;;;4.40;1.97;;;2.30;96.30;;;;;;4882684;29;20460;-80
2022/01/18 12:54:44;;;;;;;3.60;1.90;;;2.30;96.30;;;;;;4882299;29;20432;-79
2022/01/18 12:57:20;;;;;;;4.17;2.00;;;2.30;96.30;;;;;;4873165;29;20440;-79
2022/01/18 12:59:58;;;;;;;9.07;2.37;;;2.30;96.30;;;;;;4889695;29;20456;-79
2022/01/18 13:33:05;;;;;;;5.90;2.30;;;2.40;96.30;;;;;;4917665;29;20496;-80
2022/01/18 16:27:56;;;;;;;9.13;6.90;;;1.40;96.30;;;;;;4898090;29;20896;-79
2022/01/18 16:30:22;;;;;;;10.13;6.50;;;1.40;96.30;;;;;;4898078;29;20920;-79
2022/01/18 16:32:48;;;;;;;7.10;5.93;;;1.40;96.30;;;;;;4899242;29;20488;-79
2022/01/18 16:35:14;;;;;;;11.90;6.10;;;1.40;96.30;;;;;;4899114;29;20421;-80
2022/01/18 16:37:41;;;;;;;15.03;6.30;;;1.40;96.30;;;;;;4881848;29;20520;-80
2022/01/18 16:40:10;;;;;;;7.70;5.50;;;1.40;96.30;;;;;;4898893;29;20192;-80
2022/01/18 16:45:29;;;;;;;7.03;5.60;;;1.40;96.30;;;;;;5594159;23;20519;-82
2022/01/18 16:47:54;;;;;;;11.97;5.40;;;1.40;96.30;;;;;;4908299;29;20517;-83
2022/01/18 16:50:21;;;;;;;6.30;5.63;;;1.30;96.30;;;;;;4909039;29;20448;-84
2022/01/18 16:52:46;;;;;;;6.50;4.83;;;1.40;96.30;;;;;;4901193;29;20275;-82
2022/01/18 16:55:12;;;;;;;7.60;5.53;;;1.30;96.30;;;;;;4900613;29;20528;-83
2022/01/18 16:57:38;;;;;;;9.73;5.50;;;1.30;96.30;;;;;;4900497;29;20211;-83
2022/01/18 17:00:07;;;;;;;8.47;6.50;;;1.30;96.30;;;;;;4900747;29;20176;-83
2022/01/18 17:02:33;;;;;;;9.80;6.80;;;1.30;96.30;;;;;;4901044;29;20905;-81
2022/01/18 17:04:58;;;;;;;9.70;7.03;;;1.30;96.30;;;;;;4910180;29;20439;-84
2022/01/18 17:07:24;;;;;;;9.63;7.97;;;1.40;96.30;;;;;;4924645;29;20219;-83
2022/01/18 17:09:49;;;;;;;11.03;8.27;;;1.40;96.30;;;;;;4939146;29;20275;-84
2022/01/18 17:12:15;;;;;;;16.60;9.00;;;1.40;96.30;;;;;;4926290;29;20703;-80
2022/01/18 17:31:03;;;;;;;14.80;8.30;;;1.30;96.30;;;;;;5538405;23;20495;-79
2022/01/18 17:33:28;;;;;;;10.90;7.80;;;1.30;96.30;;;;;;4900239;29;21015;-79
2022/01/18 17:35:54;;;;;;;9.63;6.70;;;1.30;96.30;;;;;;4917086;29;20471;-80
2022/01/18 17:38:19;;;;;;;10.20;7.20;;;1.30;96.30;;;;;;4899711;29;20290;-79
2022/01/18 17:40:46;;;;;;;11.43;7.00;;;1.30;96.30;;;;;;4915805;29;20259;-78
2022/01/18 17:43:14;;;;;;;11.77;8.70;;;1.30;96.30;;;;;;4916834;29;20231;-78
2022/01/18 17:45:41;;;;;;;9.93;7.70;;;1.30;96.30;;;;;;4917017;29;20912;-79
2022/01/18 17:48:07;;;;;;;15.97;12.40;;;1.30;96.30;;;;;;4899812;29;20432;-79
2022/01/18 17:50:34;;;;;;;19.87;14.63;;;1.30;96.30;;;;;;4896940;29;20456;-82
2022/01/18 17:53:00;;;;;;;22.90;16.73;;;1.40;96.30;;;;;;4912904;29;20421;-80
2022/01/18 17:55:26;;;;;;;17.77;11.80;;;1.40;96.30;;;;;;4883463;29;20437;-80
2022/01/18 17:57:52;;;;;;;12.37;10.73;;;1.40;96.30;;;;;;4909586;29;20480;-80
2022/01/18 18:00:18;;;;;;;14.60;10.37;;;1.40;96.30;;;;;;4914538;29;20196;-80
2022/01/18 18:02:43;;;;;;;12.53;8.80;;;1.40;96.30;;;;;;4916916;29;20223;-81
2022/01/18 18:05:09;;;;;;;9.77;7.17;;;1.30;96.30;;;;;;4899918;29;20196;-79
2022/01/18 18:07:34;;;;;;;14.90;8.23;;;1.40;96.30;;;;;;4918242;29;20255;-80
2022/01/18 18:10:01;;;;;;;11.93;8.00;;;1.40;96.30;;;;;;4905328;29;20272;-81
2022/01/18 18:12:26;;;;;;;23.17;14.33;;;1.40;96.30;;;;;;4898074;29;20658;-80
2022/01/18 18:14:52;;;;;;;18.30;8.73;;;1.40;96.30;;;;;;4900548;29;20448;-81
2022/01/18 18:17:17;;;;;;;14.80;7.93;;;1.40;96.30;;;;;;4884697;29;20189;-81
2022/01/18 18:19:43;;;;;;;11.47;8.37;;;1.40;96.30;;;;;;4902226;29;20737;-80
2022/01/18 18:22:08;;;;;;;11.00;6.90;;;1.40;96.30;;;;;;4884886;29;20208;-80
2022/01/18 18:24:34;;;;;;;8.93;5.87;;;1.40;96.30;;;;;;4881721;29;20177;-81
2022/01/18 18:27:02;;;;;;;10.20;6.47;;;1.40;96.30;;;;;;4897652;29;20630;-80
2022/01/18 18:29:28;;;;;;;15.50;7.20;;;1.40;96.30;;;;;;4880692;29;20429;-79
2022/01/18 18:31:54;;;;;;;8.73;4.90;;;1.40;96.30;;;;;;4879754;29;20437;-80
2022/01/18 18:34:19;;;;;;;9.53;6.00;;;1.50;96.30;;;;;;4900282;29;20440;-81
2022/01/18 18:36:45;;;;;;;10.13;7.37;;;1.40;96.30;;;;;;4897671;29;20338;-81
2022/01/18 18:39:18;;;;;;;8.13;6.60;;;1.40;96.30;;;;;;4895198;29;20247;-80
2022/01/18 18:42:24;;;;;;;6.97;4.80;;;1.50;96.30;;;;;;4894925;29;20259;-80
2022/01/18 18:44:36;;;;;;;7.70;5.57;;;1.40;96.30;;;;;;4898045;29;20961;-82
2022/01/18 18:47:01;;;;;;;9.23;6.07;;;1.40;96.30;;;;;;4893951;29;20428;-81
2022/01/18 18:49:30;;;;;;;8.60;6.80;;;1.40;96.30;;;;;;4898234;29;20246;-82
2022/01/18 18:51:57;;;;;;;6.53;5.13;;;1.40;96.30;;;;;;4919068;29;20179;-81
2022/01/18 18:54:22;;;;;;;9.20;6.83;;;1.50;96.30;;;;;;4921289;29;20504;-81
2022/01/18 18:56:48;;;;;;;6.30;5.40;;;1.50;96.30;;;;;;4903708;29;20531;-81
2022/01/18 18:59:21;;;;;;;5.93;4.43;;;1.50;96.30;;;;;;4920016;29;20255;-81
2022/01/18 19:02:04;;;;;;;5.17;3.50;;;1.50;96.30;;;;;;4919547;29;20536;-82
2022/01/18 19:04:29;;;;;;;5.20;3.60;;;1.50;96.30;;;;;;4906734;29;20475;-82
2022/01/18 19:06:55;;;;;;;7.50;4.07;;;1.50;96.30;;;;;;4901887;29;20416;-81
2022/01/18 19:09:21;;;;;;;13.97;8.10;;;1.50;96.30;;;;;;4891495;29;20180;-80
2022/01/18 19:11:46;;;;;;;24.23;17.50;;;1.50;96.30;;;;;;4919820;29;20532;-81
2022/01/18 19:14:14;;;;;;;14.10;10.33;;;1.60;96.30;;;;;;4910342;29;20263;-80
2022/01/18 19:16:41;;;;;;;18.80;10.77;;;1.60;96.30;;;;;;4902359;29;20276;-80
2022/01/18 19:19:07;;;;;;;9.63;5.53;;;1.60;96.30;;;;;;4901004;29;20515;-79
2022/01/18 19:21:34;;;;;;;13.70;8.63;;;1.50;96.30;;;;;;4913693;29;20432;-79
2022/01/18 19:24:00;;;;;;;15.37;9.67;;;1.60;96.30;;;;;;4902237;29;20455;-81
2022/01/18 19:26:27;;;;;;;11.80;10.00;;;1.60;96.30;;;;;;4902038;29;20436;-80
2022/01/18 19:28:54;;;;;;;14.17;9.67;;;1.60;96.30;;;;;;4919190;29;20419;-79
2022/01/18 19:31:20;;;;;;;11.80;7.90;;;1.50;96.30;;;;;;4901725;29;20435;-79
2022/01/18 19:33:46;;;;;;;9.80;8.10;;;1.50;96.30;;;;;;4902111;29;20443;-79
2022/01/18 19:36:11;;;;;;;11.20;9.13;;;1.50;96.30;;;;;;4898690;29;20437;-79
2022/01/18 19:38:37;;;;;;;12.33;9.33;;;1.50;96.30;;;;;;4883238;29;20212;-79
2022/01/18 19:41:05;;;;;;;13.07;10.33;;;1.50;96.30;;;;;;4900136;29;20177;-79
2022/01/18 19:43:31;;;;;;;17.93;11.30;;;1.50;96.30;;;;;;4883192;29;20177;-80
2022/01/18 19:45:56;;;;;;;15.53;10.50;;;1.40;96.30;;;;;;4882861;29;20452;-80
2022/01/18 19:48:22;;;;;;;7.13;4.87;;;1.40;96.30;;;;;;4883196;29;20576;-78
2022/01/18 19:50:49;;;;;;;6.87;5.13;;;1.40;96.30;;;;;;4898284;29;20197;-78
2022/01/18 19:53:16;;;;;;;10.70;7.83;;;1.40;96.30;;;;;;4882859;29;20255;-81
2022/01/18 19:55:43;;;;;;;8.17;5.00;;;1.40;96.30;;;;;;4881866;29;20953;-78
2022/01/18 19:58:10;;;;;;;12.23;5.40;;;1.40;96.30;;;;;;4882745;29;20981;-81
2022/01/18 20:00:42;;;;;;;9.43;6.03;;;1.50;96.30;;;;;;4898319;29;20453;-78
2022/01/18 20:03:10;;;;;;;7.80;6.70;;;1.50;96.30;;;;;;4899629;29;20536;-78
2022/01/18 20:05:36;;;;;;;10.20;6.10;;;1.50;96.30;;;;;;4899541;29;20437;-78
2022/01/18 20:08:03;;;;;;;10.23;7.07;;;1.50;96.30;;;;;;4901301;29;20515;-78
2022/01/18 20:10:28;;;;;;;9.50;6.30;;;1.50;96.30;;;;;;4909755;29;20847;-81
2022/01/18 20:12:54;;;;;;;10.23;8.10;;;1.50;96.30;;;;;;4901115;29;20428;-79
2022/01/18 20:15:22;;;;;;;11.87;7.53;;;1.50;96.30;;;;;;4891665;29;20261;-79
2022/01/18 20:17:49;;;;;;;8.53;6.67;;;1.50;96.30;;;;;;4917616;29;20251;-79
2022/01/18 20:20:15;;;;;;;10.80;6.07;;;1.50;96.30;;;;;;4918568;29;20437;-81
2022/01/18 20:22:41;;;;;;;10.63;7.20;;;1.50;96.30;;;;;;4902123;29;20428;-81
2022/01/18 20:25:09;;;;;;;8.77;7.10;;;1.60;96.30;;;;;;4914195;29;20446;-78
2022/01/18 20:27:37;;;;;;;8.37;6.23;;;1.60;96.30;;;;;;4893871;29;20180;-80
2022/01/18 20:30:12;;;;;;;11.07;7.50;;;1.60;96.30;;;;;;4908571;29;20529;-78
2022/01/18 20:32:39;;;;;;;11.60;8.30;;;1.60;96.30;;;;;;4896845;29;20531;-82
2022/01/18 20:35:06;;;;;;;10.23;7.77;;;1.60;96.30;;;;;;4890941;29;20456;-79
2022/01/18 20:37:32;;;;;;;11.27;8.00;;;1.60;96.30;;;;;;4896883;29;20505;-81
2022/01/18 20:39:57;;;;;;;11.27;7.97;;;1.60;96.30;;;;;;4885688;29;20428;-79
2022/01/18 20:45:07;;;;;;;13.40;10.30;;;1.50;96.30;;;;;;4910387;29;20271;-81
2022/01/18 20:47:33;;;;;;;18.30;10.27;;;1.60;96.30;;;;;;4908970;29;20435;-80
2022/01/18 20:49:59;;;;;;;12.43;9.23;;;1.50;96.30;;;;;;4909981;29;20790;-82
2022/01/18 20:52:24;;;;;;;15.50;10.50;;;1.60;96.30;;;;;;4888206;29;20228;-81
2022/01/18 20:54:50;;;;;;;15.57;11.00;;;1.50;96.30;;;;;;4905535;29;20199;-78
2022/01/18 20:57:16;;;;;;;12.43;9.47;;;1.50;96.30;;;;;;4890991;29;20267;-79
2022/01/18 20:59:41;;;;;;;12.30;9.63;;;1.60;96.30;;;;;;4896141;29;20201;-79
2022/01/18 21:02:08;;;;;;;11.63;8.80;;;1.50;96.30;;;;;;4902807;29;20561;-80
2022/01/18 21:04:34;;;;;;;13.70;8.20;;;1.50;96.30;;;;;;4910667;29;20459;-79
2022/01/18 21:07:02;;;;;;;11.90;8.50;;;1.60;96.30;;;;;;4892179;29;20515;-80
2022/01/18 21:09:28;;;;;;;16.03;8.23;;;1.50;96.30;;;;;;4913171;29;20177;-80
2022/01/18 21:11:53;;;;;;;12.63;7.67;;;1.50;96.30;;;;;;4904482;29;20504;-80
2022/01/18 21:17:00;;;;;;;14.33;8.77;;;1.60;96.30;;;;;;4911200;29;20178;-81
2022/01/18 21:19:26;;;;;;;15.47;9.23;;;1.60;96.30;;;;;;4891016;29;20989;-82
2022/01/18 21:21:52;;;;;;;14.30;9.53;;;1.70;96.30;;;;;;4911917;29;20424;-80
2022/01/18 21:24:17;;;;;;;12.07;9.07;;;1.70;96.30;;;;;;4908679;29;20188;-79
2022/01/18 21:26:45;;;;;;;11.80;8.63;;;1.60;96.30;;;;;;4907269;29;20196;-81
2022/01/18 21:29:11;;;;;;;11.90;8.37;;;1.60;96.30;;;;;;4917356;29;20554;-81
2022/01/18 21:31:38;;;;;;;12.33;8.20;;;1.70;96.30;;;;;;4899617;29;20822;-81
2022/01/18 21:34:08;;;;;;;12.70;7.70;;;1.70;96.30;;;;;;4904523;29;20517;-82
2022/01/18 21:36:35;;;;;;;8.63;7.07;;;1.70;96.30;;;;;;4888824;29;20950;-81
2022/01/18 21:39:01;;;;;;;8.90;7.00;;;1.70;96.30;;;;;;4906847;29;20884;-82
2022/01/18 21:41:27;;;;;;;8.97;7.53;;;1.70;96.30;;;;;;4891184;29;20420;-81
2022/01/18 21:43:57;;;;;;;13.73;8.33;;;1.70;96.30;;;;;;4888297;29;21161;-82
2022/01/18 21:46:23;;;;;;;12.10;8.07;;;1.70;96.30;;;;;;4889587;29;20197;-79
2022/01/18 21:48:48;;;;;;;13.50;8.17;;;1.70;96.30;;;;;;4883364;29;20460;-81
2022/01/18 21:51:14;;;;;;;14.93;8.70;;;1.70;96.30;;;;;;4882395;29;20965;-81
2022/01/18 21:53:39;;;;;;;13.90;7.53;;;1.80;96.30;;;;;;4910593;29;20232;-79
2022/01/18 21:56:05;;;;;;;9.57;7.10;;;1.80;96.30;;;;;;4887546;29;20189;-81
2022/01/18 21:58:30;;;;;;;10.90;8.03;;;1.80;96.30;;;;;;4902454;29;20696;-79